Time;durP1;ratioP1;P1;durP2;ratioP2;P2;SDS_P1;SDS_P2;PMS_P1;PMS_P2;Temp;Humidity;BMP_temperature;BMP_pressure;BME280_temperature;BME280_humidity;BME280_pressure;Samples;Min_cycle;Max_cycle;Signal;HPM_P1;HPM_P2
2021/11/03 00:01:28;;;;;;;8.83;7.27;;;;;;;8.61;67.74;95247.75;5074491;28;20725;-65
2021/11/03 00:03:53;;;;;;;11.40;7.70;;;;;;;8.62;67.50;95254.56;5049671;28;20186;-62
2021/11/03 00:06:23;;;;;;;8.70;6.93;;;;;;;8.66;67.51;95255.00;5078116;28;20420;-65
2021/11/03 00:08:49;;;;;;;9.30;7.30;;;;;;;8.65;67.42;95249.00;5077999;28;20182;-70
2021/11/03 00:11:15;;;;;;;9.53;7.00;;;;;;;8.44;67.70;95255.78;5055423;28;20443;-63
2021/11/03 00:13:41;;;;;;;6.90;6.00;;;;;;;8.50;68.32;95256.91;5067404;28;20839;-65
2021/11/03 00:16:07;;;;;;;7.30;6.03;;;;;;;8.63;67.96;95260.63;5073116;28;20205;-65
2021/11/03 00:18:32;;;;;;;7.27;6.17;;;;;;;8.63;67.33;95266.66;5075663;28;20270;-65
2021/11/03 00:21:00;;;;;;;6.97;6.20;;;;;;;8.62;67.12;95264.22;5041660;28;20290;-66
2021/11/03 00:23:26;;;;;;;6.07;5.37;;;;;;;8.75;67.45;95261.72;5057114;28;20193;-67
2021/11/03 00:25:52;;;;;;;7.00;5.30;;;;;;;8.86;67.38;95266.44;5072129;28;20448;-64
2021/11/03 00:28:19;;;;;;;6.83;4.97;;;;;;;8.91;66.68;95264.06;5071350;28;20187;-66
2021/11/03 00:30:47;;;;;;;9.83;5.33;;;;;;;8.92;66.31;95270.09;5072332;28;20497;-63
2021/11/03 00:33:13;;;;;;;5.10;4.60;;;;;;;8.93;66.53;95261.28;5072209;28;20797;-65
2021/11/03 00:35:39;;;;;;;6.07;4.77;;;;;;;9.02;66.24;95249.66;5071215;28;20532;-65
2021/11/03 00:38:04;;;;;;;4.80;3.90;;;;;;;9.03;66.00;95243.44;5052456;28;20248;-66
2021/11/03 00:40:30;;;;;;;7.80;4.33;;;;;;;9.02;65.94;95241.00;5070713;28;20456;-65
2021/11/03 00:42:56;;;;;;;4.43;4.00;;;;;;;8.97;65.44;95244.19;5071789;28;20232;-64
2021/11/03 00:45:22;;;;;;;6.87;4.50;;;;;;;8.98;65.90;95227.53;5061379;28;20199;-64
2021/11/03 00:47:47;;;;;;;4.37;3.97;;;;;;;8.97;65.91;95228.53;5063009;28;20637;-63
2021/11/03 00:50:14;;;;;;;4.53;4.13;;;;;;;8.83;66.24;95213.75;5050451;28;20455;-64
2021/11/03 00:52:39;;;;;;;5.73;4.77;;;;;;;8.98;65.93;95217.06;5062123;28;20186;-64
2021/11/03 00:55:05;;;;;;;7.30;5.03;;;;;;;9.01;65.80;95214.09;5054232;28;20463;-64
2021/11/03 00:57:31;;;;;;;7.47;6.03;;;;;;;9.03;65.92;95214.72;5019563;28;20308;-64
2021/11/03 00:59:57;;;;;;;6.83;5.23;;;;;;;9.07;66.38;95220.34;5053048;28;20453;-65
2021/11/03 01:02:22;;;;;;;7.90;6.47;;;;;;;9.11;66.01;95226.00;5053928;28;20658;-64
2021/11/03 01:04:48;;;;;;;6.93;5.73;;;;;;;9.16;66.01;95218.41;5053708;28;20217;-64
2021/11/03 01:07:14;;;;;;;7.70;5.50;;;;;;;9.25;65.44;95216.44;5067212;28;20736;-65
2021/11/03 01:09:40;;;;;;;6.37;5.73;;;;;;;9.27;65.08;95204.78;5066274;28;20456;-63
2021/11/03 01:12:06;;;;;;;8.03;5.70;;;;;;;9.21;65.19;95195.09;5069835;28;20182;-66
2021/11/03 01:14:33;;;;;;;8.07;6.00;;;;;;;9.14;65.54;95189.84;5051928;28;20451;-65
2021/11/03 01:16:58;;;;;;;8.37;6.40;;;;;;;9.04;65.89;95198.03;5059539;28;20490;-62
2021/11/03 01:19:24;;;;;;;8.07;5.97;;;;;;;9.05;65.75;95194.44;5051107;28;20436;-65
2021/11/03 01:21:50;;;;;;;8.90;6.50;;;;;;;9.09;65.61;95181.78;5051488;28;20229;-65
2021/11/03 01:24:15;;;;;;;7.37;6.60;;;;;;;9.10;65.96;95198.25;5072702;28;20193;-65
2021/11/03 01:26:41;;;;;;;12.40;7.50;;;;;;;8.95;66.06;95193.94;5040983;28;20559;-63
2021/11/03 01:29:07;;;;;;;9.47;7.37;;;;;;;8.99;66.53;95184.72;5074181;28;20506;-63
2021/11/03 01:31:33;;;;;;;10.83;7.27;;;;;;;9.07;66.57;95189.78;5073109;28;20439;-65
2021/11/03 01:33:59;;;;;;;9.00;6.70;;;;;;;9.15;66.11;95190.66;5056195;28;20182;-66
2021/11/03 01:36:25;;;;;;;10.73;7.40;;;;;;;9.03;66.00;95203.44;5071862;28;20482;-64
2021/11/03 01:38:51;;;;;;;8.10;6.87;;;;;;;9.05;66.39;95196.22;5056607;28;20265;-65
2021/11/03 01:41:18;;;;;;;8.73;6.40;;;;;;;9.07;66.60;95195.03;5075019;28;20457;-65
2021/11/03 01:43:47;;;;;;;8.30;6.70;;;;;;;8.86;66.61;95197.72;5049360;28;20428;-64
2021/11/03 01:46:28;;;;;;;8.00;6.90;;;;;;;8.79;67.33;95195.03;5073396;28;20452;-66
2021/11/03 01:49:04;;;;;;;10.83;7.47;;;;;;;8.86;66.85;95198.53;5072963;28;20456;-64
2021/11/03 01:51:37;;;;;;;14.30;6.87;;;;;;;8.99;66.72;95202.22;5062437;28;20430;-65
2021/11/03 01:54:04;;;;;;;10.13;6.77;;;;;;;8.98;67.15;95190.94;5069401;28;20918;-64
2021/11/03 01:56:31;;;;;;;9.93;6.60;;;;;;;8.97;67.20;95196.38;5062137;28;20428;-66
2021/11/03 01:59:17;;;;;;;8.63;7.40;;;;;;;8.97;67.36;95189.34;5055844;28;20428;-65
2021/11/03 02:01:42;;;;;;;8.87;7.27;;;;;;;8.96;67.48;95179.88;5056410;28;20420;-66
2021/11/03 02:04:08;;;;;;;10.27;7.70;;;;;;;9.01;67.11;95176.72;5069162;28;20490;-65
2021/11/03 02:06:34;;;;;;;9.27;7.43;;;;;;;9.09;67.02;95167.91;5074264;28;20205;-65
2021/11/03 02:08:59;;;;;;;10.10;8.10;;;;;;;9.09;67.40;95160.06;5055723;28;20183;-63
2021/11/03 02:11:27;;;;;;;9.47;7.40;;;;;;;9.07;67.58;95148.00;5073694;28;20175;-64
2021/11/03 02:13:53;;;;;;;11.53;7.70;;;;;;;9.14;67.41;95142.00;5073837;28;20193;-65
2021/11/03 02:16:20;;;;;;;12.47;7.57;;;;;;;9.08;67.50;95148.81;5075178;28;20534;-64
2021/11/03 02:18:46;;;;;;;9.93;7.47;;;;;;;9.19;67.31;95145.66;5076056;28;20432;-63
2021/11/03 02:21:17;;;;;;;10.40;8.00;;;;;;;9.09;67.43;95128.69;5059620;28;20818;-65
2021/11/03 02:24:02;;;;;;;9.30;7.77;;;;;;;9.05;68.25;95139.56;5068723;28;20424;-64
2021/11/03 02:26:30;;;;;;;8.43;7.50;;;;;;;8.99;67.28;95140.31;5059629;28;20427;-65
2021/11/03 02:28:56;;;;;;;8.60;7.20;;;;;;;9.15;67.86;95135.78;5071814;28;20455;-65
2021/11/03 02:31:34;;;;;;;10.87;7.80;;;;;;;9.09;67.66;95149.59;5071078;28;20424;-62
2021/11/03 02:34:02;;;;;;;11.20;6.90;;;;;;;9.10;67.65;95141.59;5054267;28;20523;-64
2021/11/03 02:36:28;;;;;;;7.57;6.77;;;;;;;9.14;67.50;95153.25;5055515;28;20519;-65
2021/11/03 02:38:54;;;;;;;7.00;6.30;;;;;;;9.03;67.55;95152.00;5071438;28;20425;-65
2021/11/03 02:41:28;;;;;;;8.00;6.50;;;;;;;9.12;67.63;95146.63;5072036;28;20467;-65
2021/11/03 02:44:07;;;;;;;7.37;6.10;;;;;;;9.16;67.65;95145.22;5054332;28;20547;-65
2021/11/03 02:46:33;;;;;;;8.43;6.50;;;;;;;9.15;66.91;95138.41;5066601;28;20504;-66
2021/11/03 02:48:59;;;;;;;7.70;6.37;;;;;;;9.13;67.09;95137.78;5071055;28;20618;-66
2021/11/03 02:51:39;;;;;;;9.60;6.77;;;;;;;9.10;67.42;95127.69;5047745;28;20608;-64
2021/11/03 02:54:12;;;;;;;7.67;6.47;;;;;;;9.10;66.81;95135.53;5072716;28;20205;-64
2021/11/03 02:56:42;;;;;;;10.37;7.30;;;;;;;9.12;67.63;95133.53;5071885;28;20428;-64
2021/11/03 02:59:09;;;;;;;7.97;6.73;;;;;;;9.14;67.42;95129.72;5072505;28;20519;-62
2021/11/03 03:01:38;;;;;;;11.77;7.27;;;;;;;9.10;67.27;95125.09;5055137;28;20452;-65
2021/11/03 03:04:15;;;;;;;6.90;5.87;;;;;;;9.05;66.96;95126.50;5067396;28;20766;-65
2021/11/03 03:06:41;;;;;;;6.53;5.80;;;;;;;9.05;67.04;95129.13;5071461;28;20434;-65
2021/11/03 03:09:07;;;;;;;10.20;5.97;;;;;;;9.14;67.46;95119.28;5068938;28;20523;-65
2021/11/03 03:11:34;;;;;;;12.20;7.57;;;;;;;9.19;67.29;95123.94;5071528;28;20186;-65
2021/11/03 03:14:00;;;;;;;6.27;5.40;;;;;;;9.18;67.49;95117.09;5071231;28;20493;-66
2021/11/03 03:16:26;;;;;;;8.57;5.83;;;;;;;8.97;67.35;95116.19;5071312;28;20416;-64
2021/11/03 03:18:51;;;;;;;9.57;4.90;;;;;;;9.13;67.14;95116.88;5043872;28;20194;-65
2021/11/03 03:21:19;;;;;;;8.47;5.37;;;;;;;9.15;67.18;95107.03;5039380;28;20226;-65
2021/11/03 03:23:45;;;;;;;5.83;5.23;;;;;;;8.91;68.19;95103.91;5067277;28;20182;-65
2021/11/03 03:26:12;;;;;;;5.60;5.00;;;;;;;9.12;67.41;95113.47;5072367;28;20833;-66
2021/11/03 03:28:38;;;;;;;7.23;5.77;;;;;;;8.99;67.62;95101.13;5071007;28;20186;-65
2021/11/03 03:31:06;;;;;;;8.50;5.70;;;;;;;8.90;67.58;95112.75;5072232;28;20429;-62
2021/11/03 03:33:32;;;;;;;7.27;5.83;;;;;;;9.02;67.52;95113.81;5072464;28;20832;-65
2021/11/03 03:35:57;;;;;;;7.83;5.70;;;;;;;9.08;67.31;95112.22;5071773;28;20471;-65
2021/11/03 03:38:23;;;;;;;7.70;6.40;;;;;;;9.12;67.51;95112.63;5071884;28;20182;-65
2021/11/03 03:40:49;;;;;;;13.87;6.80;;;;;;;9.09;67.33;95110.41;5071826;28;20587;-65
2021/11/03 03:43:14;;;;;;;8.83;6.03;;;;;;;9.17;67.53;95112.88;5070726;28;20186;-62
2021/11/03 03:45:40;;;;;;;9.57;6.50;;;;;;;9.09;67.68;95102.56;5063982;28;20215;-65
2021/11/03 03:48:08;;;;;;;9.07;6.33;;;;;;;9.17;67.56;95111.06;5068636;28;20186;-65
2021/11/03 03:50:34;;;;;;;7.83;5.83;;;;;;;9.22;67.09;95107.84;5045320;28;20207;-64
2021/11/03 03:53:01;;;;;;;6.50;5.77;;;;;;;9.18;67.17;95114.50;5059675;28;20457;-65
2021/11/03 03:55:27;;;;;;;6.57;5.97;;;;;;;9.24;67.20;95108.47;5066514;28;20444;-63
2021/11/03 03:57:52;;;;;;;7.10;5.27;;;;;;;9.29;67.26;95111.31;5067318;28;20427;-64
2021/11/03 04:00:19;;;;;;;8.90;5.80;;;;;;;9.30;66.95;95107.72;5070503;28;20456;-64
2021/11/03 04:02:46;;;;;;;6.20;5.57;;;;;;;9.29;67.15;95107.88;5052136;28;20204;-64
2021/11/03 04:05:13;;;;;;;7.40;5.97;;;;;;;9.27;67.42;95102.88;5052403;28;20432;-64
2021/11/03 04:07:39;;;;;;;7.30;5.53;;;;;;;9.38;66.89;95107.53;5020012;28;20434;-64
2021/11/03 04:10:05;;;;;;;6.10;5.20;;;;;;;9.42;66.89;95107.13;5056591;28;20422;-63
2021/11/03 04:12:31;;;;;;;9.13;4.97;;;;;;;9.27;67.27;95099.44;5061520;28;20230;-65
2021/11/03 04:14:56;;;;;;;10.53;5.30;;;;;;;9.27;67.58;95095.03;5053747;28;20437;-65
2021/11/03 04:17:22;;;;;;;7.43;4.53;;;;;;;9.36;67.66;95098.28;5050105;28;20183;-63
2021/11/03 04:19:47;;;;;;;8.40;5.10;;;;;;;9.36;67.52;95093.84;5033806;28;20256;-65
2021/11/03 04:22:13;;;;;;;5.53;4.97;;;;;;;9.38;67.36;95099.69;5056395;28;20187;-65
2021/11/03 04:24:39;;;;;;;5.00;4.60;;;;;;;9.43;67.21;95103.53;5056840;28;20206;-65
2021/11/03 04:27:05;;;;;;;9.20;5.17;;;;;;;9.35;67.64;95099.28;5050192;28;20567;-66
2021/11/03 04:29:31;;;;;;;7.53;4.30;;;;;;;9.42;67.60;95096.69;5051387;28;20530;-65
2021/11/03 04:31:56;;;;;;;5.27;4.37;;;;;;;9.41;67.80;95089.84;5051663;28;20424;-65
2021/11/03 04:34:22;;;;;;;4.67;4.27;;;;;;;9.47;67.58;95092.47;5052956;28;20214;-65
2021/11/03 04:36:48;;;;;;;5.47;3.83;;;;;;;9.51;67.58;95085.03;5055827;28;20199;-65
2021/11/03 04:39:14;;;;;;;4.67;4.27;;;;;;;9.54;67.19;95095.09;5046581;28;20218;-65
2021/11/03 04:41:40;;;;;;;4.20;3.80;;;;;;;9.53;66.94;95083.81;5068978;28;20867;-64
2021/11/03 04:44:06;;;;;;;6.60;4.63;;;;;;;9.49;67.43;95087.84;5063596;28;20190;-64
2021/11/03 04:46:32;;;;;;;3.87;3.50;;;;;;;9.51;66.80;95079.81;5059983;28;20175;-64
2021/11/03 04:48:58;;;;;;;4.67;4.00;;;;;;;9.46;66.80;95071.75;5059519;28;20441;-65
2021/11/03 04:51:24;;;;;;;3.87;3.57;;;;;;;9.48;66.97;95069.75;5045682;28;20800;-64
2021/11/03 04:53:49;;;;;;;3.50;3.20;;;;;;;9.35;66.76;95071.31;5052650;28;20183;-63
2021/11/03 04:56:19;;;;;;;3.90;3.50;;;;;;;9.32;67.30;95056.03;5017725;28;20252;-66
2021/11/03 04:58:46;;;;;;;4.70;3.73;;;;;;;9.33;67.43;95052.41;5057711;28;20197;-64
2021/11/03 05:01:12;;;;;;;4.77;3.87;;;;;;;9.47;66.90;95052.44;5053332;28;20468;-64
2021/11/03 05:03:37;;;;;;;3.50;3.13;;;;;;;9.50;66.91;95052.03;5051075;28;20430;-63
2021/11/03 05:06:04;;;;;;;4.23;3.33;;;;;;;9.48;66.86;95044.41;5043757;28;20289;-65
2021/11/03 05:08:29;;;;;;;3.90;2.90;;;;;;;9.56;66.31;95046.03;5053118;28;20265;-64
2021/11/03 05:10:55;;;;;;;4.23;2.70;;;;;;;9.57;66.97;95041.59;5049843;28;21202;-65
2021/11/03 05:13:22;;;;;;;3.40;2.80;;;;;;;9.66;66.88;95043.84;5055646;28;20661;-65
2021/11/03 05:15:48;;;;;;;3.23;2.93;;;;;;;9.67;66.66;95042.00;5054224;28;20584;-64
2021/11/03 05:18:13;;;;;;;3.30;3.00;;;;;;;9.60;66.73;95031.53;5041595;28;20425;-65
2021/11/03 05:20:39;;;;;;;3.50;2.83;;;;;;;9.70;66.92;95030.38;5057374;28;20230;-64
2021/11/03 05:23:05;;;;;;;3.53;3.23;;;;;;;9.66;66.54;95029.94;5058014;28;20183;-64
2021/11/03 05:25:31;;;;;;;3.60;3.30;;;;;;;9.68;66.38;95025.31;5050460;28;20206;-65
2021/11/03 05:27:57;;;;;;;4.10;3.00;;;;;;;9.68;66.55;95022.69;5048767;28;20183;-64
2021/11/03 05:30:24;;;;;;;5.00;3.50;;;;;;;9.72;66.74;95017.88;5050526;28;20175;-69
2021/11/03 05:32:50;;;;;;;4.17;2.90;;;;;;;9.68;66.33;95020.91;5029497;28;20945;-62
2021/11/03 05:35:16;;;;;;;5.50;2.87;;;;;;;9.73;66.36;95014.25;5049600;28;20461;-64
2021/11/03 05:37:42;;;;;;;3.50;3.03;;;;;;;9.81;66.28;95016.69;5050278;28;20186;-63
2021/11/03 05:40:14;;;;;;;3.40;2.90;;;;;;;9.83;66.30;95009.44;5051028;28;20515;-63
2021/11/03 05:42:39;;;;;;;3.60;3.30;;;;;;;9.83;66.47;95009.44;5044353;28;20187;-64
2021/11/03 05:45:05;;;;;;;3.57;3.27;;;;;;;9.77;66.39;95013.66;5050114;28;20471;-63
2021/11/03 05:47:31;;;;;;;3.73;2.80;;;;;;;9.79;66.53;94989.94;5048815;28;20194;-65
2021/11/03 05:49:57;;;;;;;3.10;2.83;;;;;;;9.87;66.18;94992.34;5048999;28;20425;-64
2021/11/03 05:52:25;;;;;;;3.30;2.70;;;;;;;9.83;66.21;94993.72;5050981;28;20504;-63
2021/11/03 05:54:51;;;;;;;6.67;3.17;;;;;;;9.95;66.07;94983.47;5062008;28;20453;-65
2021/11/03 05:57:22;;;;;;;3.30;3.00;;;;;;;9.99;66.16;94985.47;5056501;28;20502;-63
2021/11/03 05:59:48;;;;;;;3.20;2.90;;;;;;;10.01;65.95;94971.38;5059650;28;20462;-64
2021/11/03 06:02:14;;;;;;;3.27;2.87;;;;;;;9.99;65.97;94976.84;5034540;28;20479;-65
2021/11/03 06:04:40;;;;;;;4.07;2.77;;;;;;;10.00;65.93;94967.97;5055093;28;20500;-64
2021/11/03 06:07:05;;;;;;;4.50;2.70;;;;;;;9.93;66.32;94959.31;5048570;28;20183;-64
2021/11/03 06:09:32;;;;;;;4.30;3.23;;;;;;;9.95;65.87;94965.97;5050678;28;20258;-64
2021/11/03 06:11:58;;;;;;;3.07;2.77;;;;;;;9.89;66.45;94964.16;5049031;28;20270;-65
2021/11/03 06:14:23;;;;;;;3.27;2.97;;;;;;;9.94;66.31;94966.97;5053230;28;20533;-65
2021/11/03 06:16:49;;;;;;;3.20;2.90;;;;;;;9.85;65.79;94960.31;5053933;28;20233;-65
2021/11/03 06:19:15;;;;;;;3.87;2.80;;;;;;;9.89;66.00;94964.16;5059324;28;20187;-64
2021/11/03 06:21:40;;;;;;;4.27;2.97;;;;;;;9.73;66.16;94961.94;5053319;28;20211;-63
2021/11/03 06:24:06;;;;;;;4.67;2.97;;;;;;;9.86;66.49;94969.78;5071883;28;20705;-64
2021/11/03 06:26:32;;;;;;;3.50;3.20;;;;;;;9.85;66.29;94965.56;5056241;28;20562;-65
2021/11/03 06:28:58;;;;;;;4.20;3.07;;;;;;;9.96;66.18;94956.31;5073433;28;20420;-64
2021/11/03 06:31:23;;;;;;;7.70;3.23;;;;;;;10.02;66.13;94954.69;5072082;28;20218;-65
2021/11/03 06:33:50;;;;;;;4.00;3.33;;;;;;;10.04;65.97;94968.38;5072939;28;20190;-64
2021/11/03 06:36:16;;;;;;;5.87;3.87;;;;;;;10.07;65.88;94975.81;5073599;28;20283;-65
2021/11/03 06:38:42;;;;;;;7.03;3.70;;;;;;;9.83;66.77;94970.19;5072434;28;20864;-64
2021/11/03 06:41:09;;;;;;;7.20;4.50;;;;;;;9.75;67.53;94970.41;5055089;28;20464;-63
2021/11/03 06:43:42;;;;;;;8.73;5.30;;;;;;;9.92;67.09;94966.38;5073472;28;20186;-64
2021/11/03 06:46:08;;;;;;;5.70;5.10;;;;;;;9.40;68.13;94963.53;5072568;28;20444;-64
2021/11/03 06:48:33;;;;;;;8.23;6.00;;;;;;;9.76;67.24;94961.56;5055308;28;20444;-63
2021/11/03 06:50:59;;;;;;;6.73;4.90;;;;;;;9.83;66.68;94968.38;5073111;28;20421;-66
2021/11/03 06:53:26;;;;;;;8.50;5.40;;;;;;;9.90;66.93;94968.38;5065542;28;20194;-64
2021/11/03 06:55:53;;;;;;;5.57;4.80;;;;;;;9.90;66.93;94964.94;5073312;28;20210;-64
2021/11/03 06:58:19;;;;;;;7.63;4.90;;;;;;;9.92;66.62;94984.69;5067585;28;20426;-61
2021/11/03 07:00:47;;;;;;;7.40;4.93;;;;;;;10.05;66.77;94972.59;5050931;28;20878;-67
2021/11/03 07:03:13;;;;;;;5.03;4.60;;;;;;;10.11;66.49;94971.78;5072020;28;20749;-63
2021/11/03 07:05:41;;;;;;;6.83;5.00;;;;;;;10.07;66.36;94971.38;5069736;28;20998;-63
2021/11/03 07:08:07;;;;;;;13.37;4.60;;;;;;;10.07;65.69;94968.75;5071541;28;20455;-62
2021/11/03 07:10:37;;;;;;;5.33;4.57;;;;;;;10.07;66.01;94973.22;5073722;28;20456;-63
2021/11/03 07:13:03;;;;;;;5.33;4.50;;;;;;;10.11;65.46;94974.38;5053695;28;20463;-65
2021/11/03 07:15:29;;;;;;;5.57;4.00;;;;;;;10.17;65.66;94975.38;5073195;28;20506;-65
2021/11/03 07:17:55;;;;;;;5.80;4.87;;;;;;;9.98;65.04;94983.88;5072204;28;20433;-65
2021/11/03 07:20:22;;;;;;;7.30;4.93;;;;;;;10.08;65.50;94977.44;5072511;28;20452;-65
2021/11/03 07:22:47;;;;;;;6.20;4.90;;;;;;;10.21;65.11;94959.06;5027911;28;20493;-65
2021/11/03 07:25:17;;;;;;;13.57;4.97;;;;;;;10.06;65.28;94951.44;5072771;28;20452;-64
2021/11/03 07:27:44;;;;;;;8.70;4.87;;;;;;;10.02;65.44;94950.25;5059707;28;20273;-65
2021/11/03 07:30:11;;;;;;;6.50;4.40;;;;;;;9.76;65.13;94967.59;5072984;28;20771;-64
2021/11/03 07:32:37;;;;;;;6.40;4.13;;;;;;;9.61;65.03;94983.47;5070625;28;20436;-64
2021/11/03 07:35:03;;;;;;;8.30;4.50;;;;;;;9.74;64.95;94992.31;5071211;28;20453;-65
2021/11/03 07:37:31;;;;;;;5.10;4.10;;;;;;;10.01;64.12;94979.25;5072032;28;20304;-64
2021/11/03 07:39:57;;;;;;;10.43;4.73;;;;;;;10.04;63.56;94979.63;5071303;28;20543;-64
2021/11/03 07:42:23;;;;;;;8.60;4.60;;;;;;;10.16;64.16;94961.50;5071155;28;20452;-64
2021/11/03 07:44:49;;;;;;;6.43;4.60;;;;;;;10.17;63.76;94952.66;5072313;28;20210;-64
2021/11/03 07:47:15;;;;;;;8.40;4.40;;;;;;;10.09;62.52;94953.66;5072339;28;20194;-64
2021/11/03 07:49:40;;;;;;;11.57;4.80;;;;;;;10.00;63.51;94967.97;5071025;28;20232;-65
2021/11/03 07:52:06;;;;;;;6.63;4.40;;;;;;;10.36;62.78;94976.34;5063823;28;20632;-64
2021/11/03 07:54:32;;;;;;;9.00;4.83;;;;;;;10.37;62.70;94965.69;5071359;28;20202;-63
2021/11/03 07:56:58;;;;;;;7.40;4.87;;;;;;;9.80;63.97;94955.72;5072316;28;20444;-64
2021/11/03 07:59:24;;;;;;;14.10;5.00;;;;;;;10.18;63.38;94951.66;5071974;28;20179;-64
2021/11/03 08:01:51;;;;;;;5.33;4.60;;;;;;;10.12;62.85;94944.59;5072392;28;20210;-64
2021/11/03 08:04:18;;;;;;;9.43;4.83;;;;;;;10.25;62.73;94959.47;5068246;28;20494;-65
2021/11/03 08:06:44;;;;;;;5.80;4.30;;;;;;;10.47;62.56;94956.63;5060354;28;20422;-65
2021/11/03 08:09:10;;;;;;;7.33;4.40;;;;;;;10.30;62.15;94942.16;5071326;28;20516;-64
2021/11/03 08:12:08;;;;;;;4.53;4.10;;;;;;;10.31;62.38;94937.72;5071408;28;20792;-64
2021/11/03 08:14:33;;;;;;;7.17;4.13;;;;;;;10.24;62.79;94937.72;5072311;28;20971;-64
2021/11/03 08:17:03;;;;;;;5.40;4.03;;;;;;;10.58;62.00;94948.13;5063647;28;20523;-63
2021/11/03 08:19:38;;;;;;;5.93;4.50;;;;;;;10.54;61.40;94929.41;5070923;28;20232;-66
2021/11/03 08:22:05;;;;;;;4.63;3.63;;;;;;;10.73;60.81;94937.38;5060938;28;20843;-65
2021/11/03 08:24:34;;;;;;;6.87;4.27;;;;;;;10.73;60.89;94932.97;5064605;28;20449;-64
2021/11/03 08:27:01;;;;;;;4.80;3.93;;;;;;;10.75;60.98;94933.56;5069160;28;20459;-65
2021/11/03 08:29:27;;;;;;;4.50;3.50;;;;;;;10.79;60.52;94943.59;5070126;28;20520;-64
2021/11/03 08:31:56;;;;;;;5.43;3.83;;;;;;;10.93;60.67;94934.66;5052721;28;20421;-65
2021/11/03 08:34:27;;;;;;;12.47;3.63;;;;;;;10.93;60.20;94933.88;5049135;28;20540;-65
2021/11/03 08:36:54;;;;;;;11.73;4.20;;;;;;;11.02;60.04;94933.44;5059142;28;20940;-66
2021/11/03 08:39:19;;;;;;;4.50;3.30;;;;;;;11.03;59.10;94934.22;5070212;28;20460;-65
2021/11/03 08:41:51;;;;;;;6.40;3.60;;;;;;;11.08;58.99;94942.25;5073159;28;20487;-66
2021/11/03 08:44:17;;;;;;;3.93;3.33;;;;;;;11.22;58.78;94937.72;5056946;28;20202;-64
2021/11/03 08:46:43;;;;;;;3.77;3.27;;;;;;;11.27;57.59;94939.72;5070284;28;20432;-64
2021/11/03 08:49:08;;;;;;;5.10;3.00;;;;;;;11.21;57.78;94947.41;5062102;28;20186;-64
2021/11/03 08:51:34;;;;;;;4.57;3.40;;;;;;;11.22;58.63;94948.22;5067694;28;20261;-64
2021/11/03 08:54:03;;;;;;;3.40;3.10;;;;;;;11.44;58.35;94947.88;5067666;28;20182;-65
2021/11/03 08:56:29;;;;;;;6.13;3.47;;;;;;;11.40;57.36;94955.34;5071873;28;20179;-64
2021/11/03 08:58:55;;;;;;;9.07;3.90;;;;;;;11.34;57.13;94950.97;5071426;28;20967;-65
2021/11/03 09:01:21;;;;;;;10.57;4.10;;;;;;;11.57;57.16;94952.22;5071897;28;20567;-66
2021/11/03 09:03:47;;;;;;;16.20;4.63;;;;;;;11.70;57.23;94946.06;5068017;28;20183;-65
2021/11/03 09:06:13;;;;;;;6.60;5.30;;;;;;;11.74;57.72;94942.78;5070594;28;21008;-63
2021/11/03 09:08:46;;;;;;;19.47;5.40;;;;;;;11.48;58.66;94943.81;5070648;28;20731;-64
2021/11/03 09:11:12;;;;;;;23.13;4.77;;;;;;;11.76;57.81;94939.97;5054415;28;20174;-64
2021/11/03 09:13:38;;;;;;;17.53;4.23;;;;;;;11.71;56.92;94945.03;5063808;28;20498;-66
2021/11/03 09:16:04;;;;;;;13.10;4.20;;;;;;;11.70;57.29;94946.88;5084140;28;20209;-66
2021/11/03 09:18:30;;;;;;;3.93;3.57;;;;;;;11.82;56.86;94950.41;5075222;28;20182;-67
2021/11/03 09:20:56;;;;;;;5.10;3.60;;;;;;;11.86;56.95;94936.84;5076866;28;20472;-63
2021/11/03 09:23:23;;;;;;;4.43;3.40;;;;;;;12.08;56.05;94924.97;5070444;28;20516;-66
2021/11/03 09:25:51;;;;;;;9.93;5.50;;;;;;;11.83;56.96;94932.81;5073059;28;20436;-65
2021/11/03 09:28:18;;;;;;;8.53;3.60;;;;;;;12.35;55.68;94934.38;5078614;28;20417;-66
2021/11/03 09:30:44;;;;;;;6.20;3.40;;;;;;;12.58;54.09;94938.97;5063145;28;20785;-65
2021/11/03 09:33:11;;;;;;;5.00;3.27;;;;;;;12.53;53.86;94936.19;5078000;28;20429;-66
2021/11/03 09:35:43;;;;;;;5.67;3.33;;;;;;;12.34;52.75;94938.03;5053373;28;20468;-65
2021/11/03 09:38:12;;;;;;;5.50;3.63;;;;;;;12.43;53.48;94941.94;5075781;28;20424;-66
2021/11/03 09:40:58;;;;;;;12.73;3.00;;;;;;;12.50;53.13;94937.44;5066754;28;20476;-66
2021/11/03 09:43:34;;;;;;;9.53;3.13;;;;;;;12.51;52.70;94946.94;5057776;28;20424;-65
2021/11/03 09:46:02;;;;;;;4.30;2.60;;;;;;;12.61;52.01;94949.03;5070844;28;20448;-65
2021/11/03 09:48:34;;;;;;;5.50;2.80;;;;;;;12.62;52.33;94955.09;5068387;28;20460;-66
2021/11/03 09:51:15;;;;;;;2.80;2.60;;;;;;;12.92;52.37;94959.59;5072807;28;20434;-65
2021/11/03 09:53:49;;;;;;;4.80;3.23;;;;;;;13.11;52.38;94960.34;5057851;28;20783;-65
2021/11/03 09:56:19;;;;;;;8.63;3.77;;;;;;;13.05;51.80;94964.66;5074304;28;20787;-66
2021/11/03 09:58:51;;;;;;;7.70;4.30;;;;;;;12.42;53.61;94963.97;5072812;28;20428;-66
2021/11/03 10:01:21;;;;;;;4.33;3.47;;;;;;;12.92;52.84;94955.13;5058583;28;20826;-66
2021/11/03 10:04:20;;;;;;;4.47;2.83;;;;;;;13.00;51.67;94959.28;5071235;28;20468;-64
2021/11/03 10:06:59;;;;;;;3.70;2.20;;;;;;;12.77;51.80;94952.91;5065041;28;20501;-66
2021/11/03 10:09:25;;;;;;;4.30;2.73;;;;;;;12.89;51.25;94950.31;5052098;28;20847;-65
2021/11/03 10:11:53;;;;;;;2.80;2.60;;;;;;;12.72;50.56;94953.56;5069834;28;20452;-66
2021/11/03 10:14:19;;;;;;;2.77;2.50;;;;;;;12.63;51.09;94957.50;5056136;28;20195;-66
2021/11/03 10:16:54;;;;;;;4.60;2.60;;;;;;;12.69;51.07;94951.38;5074446;28;20428;-66
2021/11/03 10:19:31;;;;;;;3.97;2.80;;;;;;;12.72;50.30;94947.50;5072515;28;20424;-66
2021/11/03 10:22:01;;;;;;;3.47;2.33;;;;;;;12.80;49.97;94946.38;5063685;28;20433;-66
2021/11/03 10:24:38;;;;;;;19.67;2.73;;;;;;;12.75;50.54;94954.94;5071421;28;20464;-66
2021/11/03 10:27:09;;;;;;;2.73;2.30;;;;;;;12.91;50.15;94964.03;5073021;28;20428;-67
2021/11/03 10:29:40;;;;;;;5.63;2.87;;;;;;;13.00;50.76;94954.81;5073864;28;20417;-65
2021/11/03 10:32:09;;;;;;;11.90;2.80;;;;;;;13.12;50.38;94975.09;5065410;28;20454;-65
2021/11/03 10:34:34;;;;;;;10.50;3.57;;;;;;;13.19;50.44;94979.25;5073526;28;20482;-66
2021/11/03 10:37:18;;;;;;;7.80;3.50;;;;;;;12.57;51.80;94976.78;5073709;28;20494;-67
2021/11/03 10:39:59;;;;;;;10.63;2.83;;;;;;;12.38;52.70;94974.13;5073776;28;20551;-66
2021/11/03 10:42:42;;;;;;;5.73;3.17;;;;;;;12.42;53.02;94972.69;5059636;28;20543;-67
2021/11/03 10:45:10;;;;;;;6.97;3.67;;;;;;;12.93;52.34;94974.31;5072515;28;20436;-65
2021/11/03 10:47:36;;;;;;;5.70;2.90;;;;;;;13.21;51.07;94984.28;5073619;28;20904;-63
2021/11/03 10:50:14;;;;;;;3.83;2.70;;;;;;;13.39;50.85;94982.63;5063702;28;20499;-64
2021/11/03 10:52:58;;;;;;;3.77;2.37;;;;;;;13.64;50.45;94982.50;5065454;28;20416;-66
2021/11/03 10:55:26;;;;;;;4.53;3.37;;;;;;;13.58;50.42;94994.72;5059311;28;20449;-66
2021/11/03 10:58:16;;;;;;;3.97;2.63;;;;;;;12.86;52.87;94988.38;5073185;28;20456;-65
2021/11/03 11:01:39;;;;;;;3.57;2.30;;;;;;;12.81;53.61;94995.31;5072053;28;20460;-66
2021/11/03 11:04:15;;;;;;;4.83;2.70;;;;;;;12.92;54.30;94997.19;5001288;28;20509;-67
2021/11/03 11:06:47;;;;;;;5.23;2.80;;;;;;;12.74;55.48;95000.63;5010646;28;20435;-66
2021/11/03 11:09:36;;;;;;;3.50;2.73;;;;;;;12.07;56.78;95002.09;5030632;28;20438;-64
2021/11/03 11:12:23;;;;;;;7.73;3.20;;;;;;;11.99;57.53;94999.75;5012595;28;20440;-66
2021/11/03 11:14:51;;;;;;;3.33;3.00;;;;;;;12.16;56.51;94994.75;5030550;28;20529;-67
2021/11/03 11:17:27;;;;;;;7.07;3.07;;;;;;;12.28;56.37;94992.22;5030639;28;20485;-64
2021/11/03 11:20:27;;;;;;;4.63;2.60;;;;;;;12.09;57.52;94994.81;5010401;28;20427;-65
2021/11/03 11:22:59;;;;;;;3.53;2.90;;;;;;;12.46;56.85;94994.06;5023303;28;20426;-65
2021/11/03 11:25:41;;;;;;;3.67;2.20;;;;;;;12.52;56.53;94993.19;5006485;28;20446;-65
2021/11/03 11:28:18;;;;;;;3.30;2.70;;;;;;;12.62;56.45;94992.66;5017692;28;20465;-66
2021/11/03 11:30:57;;;;;;;5.57;3.30;;;;;;;12.86;55.51;94987.53;5010566;28;20419;-65
2021/11/03 11:33:29;;;;;;;4.03;2.40;;;;;;;12.77;55.45;94994.94;5023574;28;20422;-67
2021/11/03 11:36:13;;;;;;;3.20;2.43;;;;;;;12.88;55.27;94999.47;5028983;28;20466;-64
2021/11/03 11:39:00;;;;;;;6.70;2.60;;;;;;;13.15;54.89;94993.88;5059230;28;20436;-64
2021/11/03 11:41:31;;;;;;;2.97;2.67;;;;;;;13.10;54.30;94985.06;5059565;28;20458;-64
2021/11/03 11:44:18;;;;;;;4.40;2.73;;;;;;;13.08;53.77;94989.72;5070712;28;20482;-65